Decoded Metar for LFMK (Carcassonne in FRANCE) (IATA:CCF) | Meteo·Mobile Aviation Weather
aviador You're here:

LFMK Decoded Metar

Carcassonne in FRANCE
Report Time2019-10-21 08:00:00
UTC Time2019-10-21 08:09:21
Flight Rules vfr VFR
Wind250° at 06 kt
W.Decomp.*RWY 28: 5.2 kt HW 3 kt LCW
Visibility9999 m
Phenomena:N/A
Clouds:Overcast 056 Hf
Expected CloudBase > 800 ft AGL from Temp-Dew spread
Ceiling5,600 ft
Temp11°C (ISA -3)
Dew Point09°C (88% RH)
AAT8.6°C
QNH1019 hPa
Density Alt3 ft
Elevation427 ft
Report Wrong Elevation
Raw Report
METAR LFMK 210800Z AUTO 25006KT 9999 OVC056 11/09 Q1019 NOSIG=

Extra information for LFMK:More info

Metar Taf Metar & Taf Last 4 Metars F.Rules Stats Wind Profile Meteogram Temp Stats Airport Information Weather charts Add Link Nearby VenuesMetar ALERT Operation Metar Decoded Social comments

AudeAéroServices
Aéroprakt A-22
Husky Dealer